createdAt,value
2024-03-05T00:00:29.046Z,31.88
2024-03-05T00:02:55.716Z,37.58
2024-03-05T00:05:22.347Z,34.33
2024-03-05T00:07:49.063Z,39.00
2024-03-05T00:10:15.916Z,36.35
2024-03-05T00:12:43.089Z,36.40
2024-03-05T00:15:10.142Z,33.95
2024-03-05T00:17:38.116Z,33.05
2024-03-05T00:20:05.494Z,35.03
2024-03-05T00:22:32.152Z,37.80
2024-03-05T00:24:59.910Z,31.30
2024-03-05T00:27:27.227Z,32.92
2024-03-05T00:29:53.794Z,38.67
2024-03-05T00:32:20.339Z,35.97
2024-03-05T00:34:46.951Z,38.35
2024-03-05T00:37:13.533Z,36.50
2024-03-05T00:39:40.112Z,36.38
2024-03-05T00:42:06.813Z,35.78
2024-03-05T00:44:33.474Z,38.33
2024-03-05T00:47:00.110Z,34.30
2024-03-05T00:49:26.804Z,36.67
2024-03-05T00:51:54.043Z,35.45
2024-03-05T00:54:20.616Z,33.50
2024-03-05T00:56:48.118Z,33.13
2024-03-05T00:59:14.698Z,35.47
2024-03-05T01:01:41.341Z,33.70
2024-03-05T01:04:09.296Z,35.95
2024-03-05T01:06:36.209Z,37.08
2024-03-05T01:09:03.956Z,35.20
2024-03-05T01:11:31.039Z,39.63
2024-03-05T01:13:58.701Z,35.28
2024-03-05T01:16:27.449Z,39.65
2024-03-05T01:18:56.578Z,34.50
2024-03-05T01:21:23.298Z,34.65
2024-03-05T01:23:50.218Z,35.03
2024-03-05T01:26:16.830Z,35.88
2024-03-05T01:28:43.516Z,37.58
2024-03-05T01:31:10.245Z,35.38
2024-03-05T01:33:37.357Z,35.13
2024-03-05T01:36:04.615Z,35.72
2024-03-05T01:38:31.430Z,36.95
2024-03-05T01:40:58.166Z,37.97
2024-03-05T01:43:25.141Z,35.08
2024-03-05T01:45:52.237Z,35.08
2024-03-05T01:48:19.643Z,39.10
2024-03-05T01:50:46.450Z,39.45
2024-03-05T01:53:16.488Z,41.20
2024-03-05T01:55:46.344Z,41.05
2024-03-05T01:58:16.673Z,38.92
2024-03-05T02:00:43.488Z,37.42
2024-03-05T02:03:12.420Z,36.35
2024-03-05T02:05:44.429Z,36.00
2024-03-05T02:08:16.130Z,42.30
2024-03-05T02:10:48.421Z,37.55
2024-03-05T02:13:15.120Z,41.60
2024-03-05T02:15:41.853Z,40.03
2024-03-05T02:18:09.206Z,40.40
2024-03-05T02:20:36.086Z,45.10
2024-03-05T02:23:03.583Z,45.05
2024-03-05T02:25:32.528Z,45.13
2024-03-05T02:28:00.927Z,44.25
2024-03-05T02:30:27.652Z,46.53
2024-03-05T02:32:54.478Z,45.85
2024-03-05T02:35:22.589Z,42.88
2024-03-05T02:37:49.341Z,42.47
2024-03-05T02:40:16.755Z,44.65
2024-03-05T02:42:44.132Z,42.25
2024-03-05T02:45:12.270Z,47.25
2024-03-05T02:47:42.520Z,45.70
2024-03-05T02:50:12.652Z,43.58
2024-03-05T02:52:40.159Z,43.67
2024-03-05T02:55:13.863Z,46.45
2024-03-05T02:57:45.538Z,44.85
2024-03-05T03:00:21.927Z,44.95
2024-03-05T03:02:52.354Z,46.70
2024-03-05T03:05:22.721Z,49.92
2024-03-05T03:07:49.996Z,46.65
2024-03-05T03:10:16.810Z,49.75
2024-03-05T03:12:43.785Z,49.53
2024-03-05T03:15:10.631Z,48.67
2024-03-05T03:17:43.676Z,44.55
2024-03-05T03:20:10.969Z,48.63
2024-03-05T03:22:37.882Z,45.28
2024-03-05T03:25:05.627Z,46.88
2024-03-05T03:27:32.369Z,49.33
2024-03-05T03:30:01.853Z,43.90
2024-03-05T03:32:29.134Z,45.60
2024-03-05T03:34:56.032Z,45.17
2024-03-05T03:37:23.254Z,45.22
2024-03-05T03:39:49.885Z,46.08
2024-03-05T03:42:17.266Z,43.47
2024-03-05T03:44:43.930Z,44.78
2024-03-05T03:47:10.639Z,45.33
2024-03-05T03:49:37.478Z,49.13
2024-03-05T03:52:04.356Z,48.60
2024-03-05T03:54:31.109Z,44.15
2024-03-05T03:56:57.693Z,49.53
2024-03-05T03:59:24.317Z,46.58
2024-03-05T04:01:51.747Z,48.25
2024-03-05T04:04:18.380Z,44.47
2024-03-05T04:06:49.207Z,52.20
2024-03-05T04:09:16.048Z,45.72
2024-03-05T04:11:43.717Z,42.35
2024-03-05T04:14:11.113Z,47.95
2024-03-05T04:16:42.076Z,47.90
2024-03-05T04:19:09.752Z,44.17
2024-03-05T04:21:47.024Z,45.05
2024-03-05T04:24:16.756Z,47.70
2024-03-05T04:26:44.018Z,50.33
2024-03-05T04:29:17.614Z,48.17
2024-03-05T04:31:50.601Z,48.55
2024-03-05T04:34:21.368Z,50.55
2024-03-05T04:36:50.821Z,48.90
2024-03-05T04:39:17.415Z,48.53
2024-03-05T04:41:47.678Z,48.10
2024-03-05T04:44:14.919Z,46.20
2024-03-05T04:46:42.146Z,44.13
2024-03-05T04:49:08.950Z,43.15
2024-03-05T04:51:36.203Z,46.97
2024-03-05T04:54:03.189Z,47.47
2024-03-05T04:56:29.856Z,47.35
2024-03-05T04:58:56.547Z,50.65
2024-03-05T05:01:23.318Z,42.53
2024-03-05T05:03:50.004Z,47.08
2024-03-05T05:06:16.785Z,45.73
2024-03-05T05:08:43.870Z,42.55
2024-03-05T05:11:10.657Z,48.83
2024-03-05T05:13:37.438Z,50.08
2024-03-05T05:16:06.294Z,48.80
2024-03-05T05:18:33.049Z,46.95
2024-03-05T05:20:59.723Z,46.65
2024-03-05T05:23:26.369Z,47.55
2024-03-05T05:25:53.976Z,45.65
2024-03-05T05:28:20.846Z,45.70
2024-03-05T05:30:47.450Z,44.60
2024-03-05T05:33:14.122Z,48.63
2024-03-05T05:35:41.281Z,45.40
2024-03-05T05:38:11.050Z,49.10
2024-03-05T05:40:37.668Z,49.35
2024-03-05T05:43:05.228Z,45.85
2024-03-05T05:45:31.806Z,47.05
2024-03-05T05:47:59.312Z,49.15
2024-03-05T05:50:32.619Z,43.03
2024-03-05T05:53:00.356Z,46.38
2024-03-05T05:55:27.681Z,43.90
2024-03-05T05:57:55.509Z,45.08
2024-03-05T06:00:24.031Z,42.88
2024-03-05T06:02:52.702Z,47.15
2024-03-05T06:05:19.412Z,38.30
2024-03-05T06:07:46.619Z,43.30
2024-03-05T06:10:18.131Z,38.92
2024-03-05T06:12:46.454Z,38.92
2024-03-05T06:15:13.356Z,38.72
2024-03-05T06:17:41.334Z,40.13
2024-03-05T06:20:11.573Z,44.73
2024-03-05T06:22:43.227Z,41.72
2024-03-05T06:25:10.807Z,39.42
2024-03-05T06:27:37.624Z,44.90
2024-03-05T06:30:08.880Z,44.40
2024-03-05T06:32:39.040Z,44.60
2024-03-05T06:35:06.914Z,45.03
2024-03-05T06:37:33.881Z,41.38
2024-03-05T06:40:00.662Z,42.58
2024-03-05T06:42:31.494Z,39.17
2024-03-05T06:45:06.770Z,36.22
2024-03-05T06:47:40.573Z,43.60
2024-03-05T06:50:08.926Z,42.97
2024-03-05T06:52:54.746Z,35.85
2024-03-05T06:55:40.217Z,34.83
2024-03-05T06:58:08.299Z,35.67
2024-03-05T07:00:35.427Z,44.25
2024-03-05T07:03:02.077Z,37.15
2024-03-05T07:05:28.630Z,40.92
2024-03-05T07:07:55.563Z,40.67
2024-03-05T07:10:22.653Z,41.57
2024-03-05T07:12:52.073Z,37.45
2024-03-05T07:15:18.790Z,38.63
2024-03-05T07:17:45.456Z,37.47
2024-03-05T07:20:23.857Z,36.22
2024-03-05T07:22:52.401Z,38.70
2024-03-05T07:25:19.509Z,35.17
2024-03-05T07:27:48.095Z,38.05
2024-03-05T07:30:21.123Z,31.88
2024-03-05T07:32:49.395Z,37.53
2024-03-05T07:35:18.699Z,31.50
2024-03-05T07:37:47.738Z,38.83
2024-03-05T07:40:21.716Z,34.30
2024-03-05T07:42:54.530Z,38.80
2024-03-05T07:45:23.172Z,34.28
2024-03-05T07:47:51.178Z,35.27
2024-03-05T07:50:17.957Z,37.10
2024-03-05T07:52:47.513Z,34.60
2024-03-05T07:55:25.730Z,36.50
2024-03-05T07:57:57.657Z,35.67
2024-03-05T08:00:26.003Z,35.60
2024-03-05T08:02:56.010Z,34.42
2024-03-05T08:05:23.481Z,40.97
2024-03-05T08:07:54.605Z,37.55
2024-03-05T08:10:22.113Z,38.55
2024-03-05T08:12:50.479Z,37.80
2024-03-05T08:15:18.357Z,37.13
2024-03-05T08:17:48.834Z,42.00
2024-03-05T08:20:19.885Z,39.00
2024-03-05T08:22:47.924Z,38.30
2024-03-05T08:25:18.544Z,40.80
2024-03-05T08:28:08.768Z,37.83
2024-03-05T08:30:35.417Z,38.95
2024-03-05T08:33:04.762Z,38.22
2024-03-05T08:35:32.395Z,34.22
2024-03-05T08:38:00.669Z,36.30
2024-03-05T08:40:28.982Z,36.38
2024-03-05T08:42:56.531Z,42.60
2024-03-05T08:45:24.911Z,35.70
2024-03-05T08:47:53.932Z,40.55
2024-03-05T08:50:22.471Z,38.83
2024-03-05T08:52:49.804Z,41.38
2024-03-05T08:55:18.854Z,38.65
2024-03-05T08:57:46.562Z,38.40
2024-03-05T09:00:32.406Z,36.22
2024-03-05T09:03:08.938Z,44.53
2024-03-05T09:05:36.602Z,38.85
2024-03-05T09:08:03.702Z,39.00
2024-03-05T09:10:30.355Z,42.45
2024-03-05T09:12:57.102Z,46.78
2024-03-05T09:15:24.142Z,42.93
2024-03-05T09:17:51.039Z,41.17
2024-03-05T09:20:18.404Z,41.55
2024-03-05T09:22:47.147Z,39.80
2024-03-05T09:25:15.929Z,40.75
2024-03-05T09:27:43.702Z,44.93
2024-03-05T09:30:11.387Z,42.97
2024-03-05T09:32:38.340Z,43.35
2024-03-05T09:35:09.962Z,43.53
2024-03-05T09:37:37.981Z,44.47
2024-03-05T09:40:07.589Z,46.33
2024-03-05T09:42:37.979Z,37.90
2024-03-05T09:45:07.650Z,39.10
2024-03-05T09:47:38.467Z,39.65
2024-03-05T09:50:08.672Z,39.50
2024-03-05T09:52:35.851Z,40.13
2024-03-05T09:55:03.113Z,42.58
2024-03-05T09:57:36.192Z,37.78
2024-03-05T10:00:05.241Z,39.05
2024-03-05T10:02:39.951Z,42.70
2024-03-05T10:05:10.692Z,40.27
2024-03-05T10:07:37.809Z,48.28
2024-03-05T10:10:05.377Z,43.38
2024-03-05T10:12:31.949Z,39.10
2024-03-05T10:15:13.108Z,38.40
2024-03-05T10:17:46.903Z,38.77
2024-03-05T10:20:28.972Z,39.22
2024-03-05T10:22:58.877Z,38.55
2024-03-05T10:25:26.863Z,36.58
2024-03-05T10:27:53.898Z,34.33
2024-03-05T10:30:38.804Z,39.27
2024-03-05T10:33:08.611Z,36.10
2024-03-05T10:35:36.802Z,34.22
2024-03-05T10:38:09.988Z,36.13
2024-03-05T10:40:38.165Z,34.50
2024-03-05T10:43:07.234Z,37.97
2024-03-05T10:45:36.037Z,34.10
2024-03-05T10:48:03.111Z,36.97
2024-03-05T10:50:30.115Z,37.45
2024-03-05T10:52:57.723Z,34.45
2024-03-05T10:55:25.391Z,37.03
2024-03-05T10:58:11.348Z,36.05
2024-03-05T11:00:42.105Z,34.25
2024-03-05T11:03:10.545Z,37.47
2024-03-05T11:05:50.549Z,37.35
2024-03-05T11:08:28.996Z,43.53
2024-03-05T11:10:58.285Z,39.47
2024-03-05T11:13:27.571Z,41.83
2024-03-05T11:15:54.862Z,37.78
2024-03-05T11:18:32.616Z,39.13
2024-03-05T11:21:06.469Z,41.53
2024-03-05T11:23:36.252Z,40.08
2024-03-05T11:26:05.041Z,39.00
2024-03-05T11:28:36.954Z,37.00
2024-03-05T11:31:33.300Z,41.10
2024-03-05T11:34:03.420Z,35.70
2024-03-05T11:36:37.463Z,42.20
2024-03-05T11:39:06.646Z,39.55
2024-03-05T11:41:35.696Z,42.35
2024-03-05T11:44:06.347Z,40.67
2024-03-05T11:46:42.907Z,39.43
2024-03-05T11:49:13.015Z,39.55
2024-03-05T11:51:41.656Z,43.25
2024-03-05T11:54:09.817Z,38.70
2024-03-05T11:56:39.497Z,38.35
2024-03-05T11:59:06.316Z,42.17
2024-03-05T12:01:33.940Z,42.10
2024-03-05T12:04:04.699Z,37.42
2024-03-05T12:06:32.195Z,40.20
2024-03-05T12:09:11.158Z,40.28
2024-03-05T12:11:38.266Z,41.70
2024-03-05T12:14:09.519Z,39.03
2024-03-05T12:16:37.778Z,40.05
2024-03-05T12:19:07.972Z,39.38
2024-03-05T12:21:37.630Z,38.08
2024-03-05T12:24:05.934Z,40.73
2024-03-05T12:26:34.707Z,39.00
2024-03-05T12:29:03.069Z,37.17
2024-03-05T12:31:29.804Z,36.85
2024-03-05T12:33:56.630Z,38.15
2024-03-05T12:36:23.491Z,36.47
2024-03-05T12:38:50.651Z,32.78
2024-03-05T12:41:21.268Z,32.58
2024-03-05T12:43:54.855Z,43.97
2024-03-05T12:46:21.617Z,39.60
2024-03-05T12:48:49.248Z,40.63
2024-03-05T12:51:15.919Z,46.47
2024-03-05T12:53:42.549Z,43.05
2024-03-05T12:56:13.329Z,49.25
2024-03-05T12:58:41.579Z,48.58
2024-03-05T13:01:11.524Z,47.10
2024-03-05T13:03:38.693Z,41.60
2024-03-05T13:06:05.597Z,46.65
2024-03-05T13:08:32.519Z,46.55
2024-03-05T13:10:59.166Z,49.65
2024-03-05T13:13:25.946Z,44.53
2024-03-05T13:15:53.103Z,41.75
2024-03-05T13:18:19.828Z,42.80
2024-03-05T13:20:46.625Z,44.40
2024-03-05T13:23:13.216Z,43.08
2024-03-05T13:25:40.005Z,43.40
2024-03-05T13:28:06.795Z,42.03
2024-03-05T13:30:33.393Z,39.70
2024-03-05T13:33:03.777Z,35.88
2024-03-05T13:35:32.981Z,32.90
2024-03-05T13:38:00.995Z,38.60
2024-03-05T13:40:28.072Z,38.42
2024-03-05T13:42:55.204Z,46.70
2024-03-05T13:45:22.008Z,42.72
2024-03-05T13:47:49.225Z,41.40
2024-03-05T13:50:18.253Z,38.30
2024-03-05T13:52:48.686Z,43.80
2024-03-05T13:55:19.626Z,43.22
2024-03-05T13:57:48.173Z,37.40
2024-03-05T14:00:20.813Z,39.40
2024-03-05T14:02:48.041Z,38.67
2024-03-05T14:05:14.873Z,38.88
2024-03-05T14:07:41.649Z,42.65
2024-03-05T14:10:11.408Z,38.50
2024-03-05T14:12:41.499Z,33.83
2024-03-05T14:15:20.838Z,36.40
2024-03-05T14:17:47.768Z,37.25
2024-03-05T14:20:14.756Z,36.75
2024-03-05T14:22:43.961Z,35.45
2024-03-05T14:25:12.669Z,36.33
2024-03-05T14:27:40.459Z,41.57
2024-03-05T14:30:12.773Z,34.42
2024-03-05T14:32:39.409Z,32.63
2024-03-05T14:35:07.155Z,39.38
2024-03-05T14:37:33.917Z,34.22
2024-03-05T14:40:00.571Z,36.77
2024-03-05T14:42:27.180Z,35.90
2024-03-05T14:44:53.749Z,32.80
2024-03-05T14:47:20.701Z,37.08
2024-03-05T14:49:47.323Z,34.00
2024-03-05T14:52:13.906Z,35.83
2024-03-05T14:54:40.502Z,39.42
2024-03-05T14:57:07.140Z,37.22
2024-03-05T14:59:34.654Z,35.28
2024-03-05T15:02:01.376Z,34.13
2024-03-05T15:04:28.178Z,33.53
2024-03-05T15:06:57.754Z,33.50
2024-03-05T15:09:24.377Z,35.15
2024-03-05T15:11:51.117Z,31.85
2024-03-05T15:14:17.800Z,31.35
2024-03-05T15:16:44.397Z,30.30
2024-03-05T15:19:11.026Z,30.77
2024-03-05T15:21:38.945Z,33.13
2024-03-05T15:24:06.018Z,34.88
2024-03-05T15:26:33.534Z,31.42
2024-03-05T15:29:00.137Z,31.43
2024-03-05T15:31:26.955Z,30.63
2024-03-05T15:33:54.569Z,34.30
2024-03-05T15:36:21.175Z,33.75
2024-03-05T15:38:47.824Z,35.40
2024-03-05T15:41:16.430Z,32.77
2024-03-05T15:43:43.156Z,32.28
2024-03-05T15:46:09.764Z,28.58
2024-03-05T15:48:36.338Z,33.55
2024-03-05T15:51:03.654Z,31.67
2024-03-05T15:53:30.291Z,33.07
2024-03-05T15:56:02.852Z,32.97
2024-03-05T15:58:41.859Z,33.55
2024-03-05T16:01:12.965Z,37.15
2024-03-05T16:03:52.568Z,34.08
2024-03-05T16:06:29.614Z,35.07
2024-03-05T16:08:56.417Z,32.25
2024-03-05T16:11:25.858Z,31.65
2024-03-05T16:13:52.983Z,52.05
2024-03-05T16:16:21.116Z,40.80
2024-03-05T16:18:48.642Z,32.97
2024-03-05T16:21:16.984Z,35.38
2024-03-05T16:23:44.714Z,32.63
2024-03-05T16:26:11.449Z,36.75
2024-03-05T16:28:39.355Z,35.55
2024-03-05T16:31:06.225Z,67.57
2024-03-05T16:33:33.881Z,67.22
2024-03-05T16:36:00.654Z,47.85
2024-03-05T16:38:27.324Z,49.17
2024-03-05T16:40:54.131Z,81.47
2024-03-05T16:43:20.946Z,83.20
2024-03-05T16:45:48.021Z,275.63
2024-03-05T16:48:14.707Z,226.07
2024-03-05T16:50:42.128Z,108.15
2024-03-05T16:53:10.039Z,74.93
2024-03-05T16:55:37.340Z,76.73
2024-03-05T16:58:10.744Z,53.50
2024-03-05T17:00:46.607Z,47.75
2024-03-05T17:03:15.970Z,38.60
2024-03-05T17:05:47.770Z,37.63
2024-03-05T17:08:20.531Z,40.20
2024-03-05T17:10:52.321Z,38.35
2024-03-05T17:13:20.439Z,40.65
2024-03-05T17:15:54.549Z,43.10
2024-03-05T17:18:23.746Z,35.55
2024-03-05T17:20:51.524Z,39.17
2024-03-05T17:23:25.383Z,43.30
2024-03-05T17:25:53.411Z,43.67
2024-03-05T17:28:20.350Z,39.55
2024-03-05T17:30:47.424Z,38.97
2024-03-05T17:33:15.758Z,41.33
2024-03-05T17:35:43.425Z,40.03
2024-03-05T17:38:14.460Z,43.53
2024-03-05T17:40:41.793Z,38.20
2024-03-05T17:43:08.846Z,36.58
2024-03-05T17:45:35.656Z,34.83
2024-03-05T17:48:06.912Z,40.42
2024-03-05T17:50:35.753Z,36.13
2024-03-05T17:53:06.180Z,39.85
2024-03-05T17:55:33.550Z,37.03
2024-03-05T17:58:00.587Z,37.13
2024-03-05T18:00:27.146Z,35.58
2024-03-05T18:02:55.590Z,38.13
2024-03-05T18:05:27.707Z,40.33
2024-03-05T18:07:55.219Z,40.55
2024-03-05T18:10:25.865Z,42.00
2024-03-05T18:12:53.849Z,42.10
2024-03-05T18:15:21.703Z,42.15
2024-03-05T18:17:53.127Z,46.17
2024-03-05T18:20:23.673Z,48.45
2024-03-05T18:22:50.769Z,47.57
2024-03-05T18:25:18.179Z,50.60
2024-03-05T18:27:50.133Z,50.53
2024-03-05T18:30:19.981Z,48.25
2024-03-05T18:32:48.352Z,49.95
2024-03-05T18:35:17.742Z,43.87
2024-03-05T18:37:45.368Z,37.60
2024-03-05T18:40:14.620Z,41.03
2024-03-05T18:42:42.655Z,40.85
2024-03-05T18:45:12.857Z,39.60
2024-03-05T18:47:46.530Z,40.23
2024-03-05T18:50:18.686Z,47.38
2024-03-05T18:52:45.496Z,45.80
2024-03-05T18:55:13.787Z,45.05
2024-03-05T18:57:40.858Z,41.30
2024-03-05T19:00:16.322Z,42.17
2024-03-05T19:02:44.423Z,43.40
2024-03-05T19:05:14.419Z,38.78
2024-03-05T19:07:47.001Z,42.30
2024-03-05T19:10:13.978Z,40.95
2024-03-05T19:12:41.197Z,42.87
2024-03-05T19:15:08.543Z,39.95
2024-03-05T19:17:35.802Z,44.42
2024-03-05T19:20:02.929Z,41.95
2024-03-05T19:22:30.229Z,41.72
2024-03-05T19:24:59.717Z,42.13
2024-03-05T19:27:26.912Z,42.90
2024-03-05T19:29:55.370Z,41.88
2024-03-05T19:32:22.352Z,41.13
2024-03-05T19:34:49.382Z,42.00
2024-03-05T19:37:17.201Z,44.55
2024-03-05T19:39:43.816Z,45.38
2024-03-05T19:42:11.655Z,42.28
2024-03-05T19:44:40.220Z,44.22
2024-03-05T19:47:06.966Z,39.00
2024-03-05T19:49:33.619Z,49.53
2024-03-05T19:52:00.494Z,42.63
2024-03-05T19:54:28.980Z,45.28
2024-03-05T19:56:56.942Z,47.25
2024-03-05T19:59:23.827Z,41.22
2024-03-05T20:01:50.619Z,46.22
2024-03-05T20:04:17.758Z,43.13
2024-03-05T20:06:44.758Z,42.33
2024-03-05T20:09:14.451Z,42.80
2024-03-05T20:11:41.484Z,43.60
2024-03-05T20:14:09.068Z,46.97
2024-03-05T20:16:36.825Z,49.25
2024-03-05T20:19:03.551Z,46.42
2024-03-05T20:21:30.202Z,44.45
2024-03-05T20:23:57.532Z,46.78
2024-03-05T20:26:24.150Z,41.05
2024-03-05T20:28:53.661Z,43.80
2024-03-05T20:31:22.812Z,46.50
2024-03-05T20:33:49.880Z,44.03
2024-03-05T20:36:19.509Z,44.38
2024-03-05T20:38:46.621Z,45.47
2024-03-05T20:41:14.264Z,47.35
2024-03-05T20:43:41.391Z,43.30
2024-03-05T20:46:10.780Z,48.45
2024-03-05T20:48:38.067Z,41.55
2024-03-05T20:51:05.003Z,44.53
2024-03-05T20:53:31.617Z,40.38
2024-03-05T20:55:58.234Z,46.97
2024-03-05T20:58:24.864Z,41.55
2024-03-05T21:00:51.614Z,38.30
2024-03-05T21:03:22.683Z,44.47
2024-03-05T21:05:49.480Z,43.88
2024-03-05T21:08:16.238Z,40.33
2024-03-05T21:10:44.703Z,39.67
2024-03-05T21:13:11.468Z,49.00
2024-03-05T21:15:38.259Z,47.20
2024-03-05T21:18:09.682Z,43.13
2024-03-05T21:20:37.436Z,47.88
2024-03-05T21:23:05.323Z,45.17
2024-03-05T21:25:39.906Z,45.00
2024-03-05T21:28:12.398Z,46.28
2024-03-05T21:30:41.211Z,45.30
2024-03-05T21:33:08.344Z,45.10
2024-03-05T21:35:35.104Z,45.95
2024-03-05T21:38:01.718Z,48.13
2024-03-05T21:40:29.084Z,47.80
2024-03-05T21:42:55.769Z,48.05
2024-03-05T21:45:22.363Z,43.58
2024-03-05T21:47:50.017Z,45.20
2024-03-05T21:50:17.258Z,50.05
2024-03-05T21:52:47.220Z,52.75
2024-03-05T21:55:14.752Z,47.22
2024-03-05T21:57:41.522Z,48.75
2024-03-05T22:00:12.849Z,46.88
2024-03-05T22:02:40.369Z,50.17
2024-03-05T22:05:08.500Z,46.03
2024-03-05T22:07:36.258Z,54.22
2024-03-05T22:10:07.340Z,51.45
2024-03-05T22:12:35.124Z,48.10
2024-03-05T22:15:01.728Z,53.30
2024-03-05T22:17:28.331Z,51.95
2024-03-05T22:19:54.910Z,48.45
2024-03-05T22:22:23.414Z,44.70
2024-03-05T22:24:51.051Z,46.33
2024-03-05T22:27:17.837Z,51.65
2024-03-05T22:29:44.544Z,53.08
2024-03-05T22:32:11.342Z,48.38
2024-03-05T22:34:38.106Z,50.28
2024-03-05T22:37:04.823Z,50.35
2024-03-05T22:39:31.356Z,52.15
2024-03-05T22:41:57.935Z,51.63
2024-03-05T22:44:24.862Z,49.92
2024-03-05T22:46:51.512Z,47.80
2024-03-05T22:49:18.672Z,49.55
2024-03-05T22:51:45.389Z,53.13
2024-03-05T22:54:12.005Z,54.72
2024-03-05T22:56:38.652Z,54.85
2024-03-05T22:59:05.317Z,58.00
2024-03-05T23:01:32.106Z,53.75
2024-03-05T23:03:58.747Z,60.08
2024-03-05T23:06:26.593Z,54.10
2024-03-05T23:08:53.297Z,52.22
2024-03-05T23:11:20.008Z,51.05
2024-03-05T23:13:46.660Z,48.08
2024-03-05T23:16:13.276Z,45.33
2024-03-05T23:18:39.863Z,48.50
2024-03-05T23:21:08.764Z,46.97
2024-03-05T23:23:35.351Z,49.70
2024-03-05T23:26:02.156Z,55.80
2024-03-05T23:28:28.805Z,53.65
2024-03-05T23:30:55.682Z,52.55
2024-03-05T23:33:22.319Z,52.42
2024-03-05T23:35:48.911Z,44.28
2024-03-05T23:38:15.571Z,48.80
2024-03-05T23:40:42.275Z,49.10
2024-03-05T23:43:08.853Z,45.58
2024-03-05T23:45:35.468Z,49.58
2024-03-05T23:48:02.139Z,50.38
2024-03-05T23:50:28.893Z,50.33
2024-03-05T23:52:55.517Z,51.63
2024-03-05T23:55:23.023Z,44.60
2024-03-05T23:57:49.665Z,47.30
